Last 24 Hours

Thomas Mountain

10 Minute Data | America/Los_Angeles
as of 10/14/19 12:07 PM PDT
Date & Time Temp (°F) Dew Pt (°F) RH (%) Wind Spd (mph) Wind Dir (°) Wind Gust (mph) Wind Gst Dir (°) Daily Max Temp (°F) Daily Min Temp (°F)
10/14/19 - 1200 62.3 14.3 15 9.0 WSW | 245 14.9 WSW | 249 63.3 48.9
10/14/19 - 1150 61.8 12.8 14 8.7 WSW | 249 14.7 WSW | 246 62.8 48.9
10/14/19 - 1140 61.4 11.1 14 8.1 WSW | 239 13.8 SW | 230 62.8 48.9
10/14/19 - 1130 62.0 9.5 12 7.1 SW | 218 12.5 W | 270 62.8 48.9
10/14/19 - 1120 61.3 9.8 13 6.6 SW | 222 12.1 SW | 219 62.5 48.9
10/14/19 - 1110 60.8 9.0 13 5.8 WSW | 247 11.6 SW | 226 62.1 48.9
10/14/19 - 1100 61.2 10.5 13 5.8 WSW | 249 10.7 WSW | 252 61.7 48.9
10/14/19 - 1050 60.4 10.8 14 5.9 WSW | 240 10.5 WSW | 238 61.2 48.9
10/14/19 - 1040 59.9 9.8 14 6.4 WSW | 246 11.2 SW | 224 60.7 48.9
10/14/19 - 1030 59.4 8.7 13 6.1 WSW | 252 9.4 WSW | 244 60.1 48.9
10/14/19 - 1020 59.1 9.2 14 4.6 WSW | 245 9.0 WSW | 246 59.9 48.9
10/14/19 - 1010 58.3 9.3 14 4.6 WSW | 250 7.5 WSW | 245 58.9 48.9
10/14/19 - 1000 57.5 8.8 14 5.2 WSW | 249 9.0 WSW | 248 58.2 48.9
10/14/19 - 0950 57.6 9.9 15 4.6 WSW | 250 7.0 SW | 234 58.0 48.9
10/14/19 - 0940 56.9 12.2 17 3.7 SW | 233 6.4 SW | 231 58.0 48.9
10/14/19 - 0930 56.7 7.9 14 4.2 SW | 226 6.6 SW | 217 57.2 48.9
10/14/19 - 0920 56.5 1.3 10 4.3 SSW | 194 6.4 SSW | 197 57.2 48.9
10/14/19 - 0910 56.6 0.7 10 2.8 S | 177 4.6 S | 190 57.2 48.9
10/14/19 - 0900 55.8 -0.3 10 3.2 SW | 226 5.3 SW | 231 56.5 48.9
10/14/19 - 0850 55.2 -3.0 9 3.2 WSW | 246 6.4 WSW | 254 56.0 48.9
10/14/19 - 0840 54.6 -2.4 9 4.6 WSW | 250 6.4 WSW | 248 56.0 48.9
10/14/19 - 0830 54.2 -0.2 11 4.3 WSW | 240 5.7 SW | 224 56.0 48.9
10/14/19 - 0820 54.1 -0.1 11 4.0 WSW | 242 5.3 WSW | 242 56.0 48.9
10/14/19 - 0810 54.0 -3.6 9 3.1 WSW | 239 4.4 WSW | 239 56.0 48.9
10/14/19 - 0800 52.4 5.1 14 0.9 N | 6 2.6 SW | 234 56.0 48.9
10/14/19 - 0750 52.0 6.2 15 2.2 NE | 37 3.1 NNE | 29 56.0 48.9
10/14/19 - 0740 51.2 6.9 16 2.8 NNE | 29 3.3 NNE | 31 56.0 48.9
10/14/19 - 0730 51.3 1.0 12 2.7 NNE | 29 3.5 NNE | 29 56.0 48.9
10/14/19 - 0720 51.2 0.8 12 2.6 NNE | 32 3.7 NE | 34 56.0 48.9
10/14/19 - 0710 50.3 6.1 16 2.4 NE | 38 3.1 NE | 42 56.0 48.9
10/14/19 - 0700 49.5 5.5 16 2.4 NE | 39 3.1 NNE | 29 56.0 48.9
10/14/19 - 0650 49.6 9.9 20 2.6 NNE | 29 3.7 ENE | 59 56.0 48.9
10/14/19 - 0640 50.0 13.7 23 4.2 W | 272 5.7 W | 261 56.0 49.2
10/14/19 - 0630 50.2 8.6 18 4.4 W | 270 6.8 W | 269 56.0 49.2
10/14/19 - 0620 50.8 2.5 14 1.9 W | 277 3.9 W | 261 56.0 49.2
10/14/19 - 0610 49.9 -0.5 12 1.9 NNW | 344 3.9 WNW | 292 56.0 49.2
10/14/19 - 0600 49.9 6.5 17 4.1 WNW | 289 6.4 WSW | 257 56.0 49.3
10/14/19 - 0550 49.8 9.3 19 6.4 WSW | 257 7.9 WSW | 258 56.0 49.6
10/14/19 - 0540 50.7 7.8 17 5.4 WSW | 255 6.1 WSW | 252 56.0 49.9
10/14/19 - 0530 52.2 0.4 12 3.9 W | 272 5.9 WSW | 257 56.0 51.1
10/14/19 - 0520 51.6 5.9 15 3.2 WSW | 258 3.7 WSW | 257 56.0 51.1
10/14/19 - 0510 54.8 -5.0 8 2.7 W | 260 3.5 W | 268 56.0 52.7
10/14/19 - 0500 55.7 -7.5 7 1.8 W | 267 2.4 W | 268 56.0 52.7
10/14/19 - 0450 55.4 -7.6 7 1.7 W | 273 2.2 W | 271 56.0 52.7
10/14/19 - 0440 55.1 -7.3 7 0.6 NW | 326 1.3 NW | 305 56.0 52.7
10/14/19 - 0430 55.5 -7.2 7 1.8 NW | 309 3.1 NW | 304 56.0 52.7
10/14/19 - 0420 54.2 -5.4 8 2.6 WNW | 294 3.7 W | 280 56.0 52.7
10/14/19 - 0410 54.1 -3.9 9 1.9 WSW | 242 2.4 WSW | 250 56.0 52.7
10/14/19 - 0400 54.8 -5.0 8 1.9 W | 274 2.4 WNW | 288 56.0 52.7
10/14/19 - 0350 55.0 -4.6 8 2.7 W | 280 4.2 W | 272 56.0 52.7
10/14/19 - 0340 55.4 -4.3 8 2.4 W | 262 3.7 WSW | 258 56.0 52.7
10/14/19 - 0330 55.6 -3.5 9 1.8 W | 271 3.5 WSW | 256 56.0 52.7
10/14/19 - 0320 55.6 -1.1 10 0.5 WNW | 291 2.0 NW | 310 55.9 52.7
10/14/19 - 0310 55.2 2.8 12 2.1 NNW | 335 3.1 NNW | 346 55.7 52.7
10/14/19 - 0300 54.7 4.6 13 3.0 N | 357 3.9 NNW | 338 55.2 52.7
10/14/19 - 0250 53.4 6.0 14 4.0 NNE | 14 6.1 NNE | 24 54.7 52.7
10/14/19 - 0240 53.9 2.5 12 3.6 NNE | 24 6.6 NE | 41 54.7 52.8
10/14/19 - 0230 53.9 4.1 13 4.1 WNW | 291 4.8 W | 277 54.5 52.8
10/14/19 - 0220 54.1 4.1 13 4.0 W | 272 5.0 W | 277 54.5 52.8
10/14/19 - 0210 53.7 6.6 15 4.6 WNW | 282 5.9 W | 281 54.2 52.8
10/14/19 - 0200 53.1 10.1 18 4.9 WNW | 284 5.9 W | 280 54.0 52.8
10/14/19 - 0150 53.3 11.5 18 4.7 W | 270 6.1 W | 273 54.0 52.8
10/14/19 - 0140 53.2 13.1 20 3.8 W | 270 5.5 W | 267 54.0 52.8
10/14/19 - 0130 53.0 14.7 22 4.9 W | 281 6.8 WNW | 284 54.0 52.8
10/14/19 - 0120 53.5 16.2 23 6.1 W | 280 8.6 W | 280 54.0 52.9
10/14/19 - 0110 53.0 19.2 26 6.0 W | 279 7.9 W | 279 53.3 52.9
10/14/19 - 0100 53.5 21.6 28 5.9 W | 269 8.6 W | 278 69.9 52.6
10/14/19 - 0050 53.4 27.4 37 5.6 W | 264 9.2 W | 269 69.9 52.6
10/14/19 - 0040 52.9 33.9 48 4.5 W | 265 7.5 W | 271 69.9 52.6
10/14/19 - 0030 53.0 37.1 55 4.1 W | 262 6.1 W | 277 69.9 52.6
10/14/19 - 0020 53.4 38.4 57 4.6 WSW | 239 5.7 SW | 223 69.9 53.2
10/14/19 - 0010 53.5 38.0 56 4.7 WSW | 255 6.8 WSW | 254 69.9 53.2
10/14/19 - 0000 53.3 38.7 57 4.6 W | 272 6.4 W | 276 69.9 53.2
10/13/19 - 2350 54.0 40.0 59 5.7 W | 261 7.2 W | 261 69.9 53.3
10/13/19 - 2340 54.3 39.6 57 5.7 WSW | 247 7.5 WSW | 246 69.9 53.3
10/13/19 - 2330 54.7 40.1 58 5.3 WSW | 257 6.6 WSW | 257 69.9 53.3
10/13/19 - 2320 54.7 40.1 58 3.3 WSW | 258 4.6 WSW | 258 69.9 53.3
10/13/19 - 2310 54.6 40.7 59 3.8 W | 272 5.7 W | 275 69.9 53.3
10/13/19 - 2300 54.7 41.0 60 4.1 WSW | 256 5.7 WSW | 248 69.9 53.3
10/13/19 - 2250 53.8 40.8 61 1.4 WSW | 242 3.5 WSW | 250 69.9 53.3
10/13/19 - 2240 53.5 39.3 59 0.5 ENE | 60 1.5 NE | 39 69.9 53.3
10/13/19 - 2230 54.2 38.5 55 0.9 NNE | 13 2.6 SW | 235 69.9 53.5
10/13/19 - 2220 54.5 38.2 54 2.2 W | 273 4.8 WNW | 289 69.9 53.8
10/13/19 - 2210 54.5 33.5 45 3.3 W | 281 5.0 W | 266 69.9 53.8
10/13/19 - 2200 54.7 34.0 45 3.2 W | 262 4.4 W | 263 69.9 53.8
10/13/19 - 2150 54.6 33.8 45 2.2 WNW | 284 3.7 W | 272 69.9 53.8
10/13/19 - 2140 54.5 34.5 47 3.7 WNW | 283 5.3 W | 276 69.9 53.8
10/13/19 - 2130 54.1 33.8 46 4.5 W | 274 5.3 W | 275 69.9 53.8
10/13/19 - 2120 54.6 33.8 46 4.3 WSW | 258 5.5 W | 262 69.9 53.8
10/13/19 - 2110 57.0 25.1 29 2.3 SSE | 168 3.7 S | 182 69.9 55.9
10/13/19 - 2100 57.3 23.1 26 2.4 S | 174 3.5 S | 174 69.9 55.9
10/13/19 - 2050 57.2 24.4 28 1.6 SSE | 168 3.1 S | 169 69.9 55.9
10/13/19 - 2040 56.9 26.3 31 0.4 S | 182 2.0 S | 186 69.9 55.9
10/13/19 - 2030 57.1 29.7 35 0.5 NE | 42 1.5 NE | 42 69.9 55.9
10/13/19 - 2020 57.1 31.3 37 1.9 NE | 38 2.6 NNE | 31 69.9 55.9
10/13/19 - 2010 57.0 32.7 40 3.4 NNE | 17 4.8 NNE | 12 69.9 55.9
10/13/19 - 2000 56.6 34.6 43 4.6 NNE | 19 5.9 NNE | 22 69.9 55.9
10/13/19 - 1950 56.2 34.8 45 5.1 NNE | 14 6.8 N | 11 69.9 55.9
10/13/19 - 1940 56.5 33.4 42 4.9 N | 5 7.0 N | 354 69.9 55.9
10/13/19 - 1930 56.6 33.8 42 6.2 N | 10 9.0 N | 354 69.9 55.9
10/13/19 - 1920 56.8 33.9 42 4.0 NE | 34 6.8 NNE | 17 69.9 55.9
10/13/19 - 1910 57.3 33.7 41 4.8 NE | 49 6.4 NE | 49 69.9 55.9
10/13/19 - 1900 58.3 32.5 38 4.3 ENE | 78 6.8 NE | 50 69.9 55.9
10/13/19 - 1850 58.8 32.8 37 2.0 SSW | 199 4.6 SW | 218 69.9 55.9
10/13/19 - 1840 58.3 37.1 45 2.1 WSW | 243 3.3 WSW | 247 69.9 55.9
10/13/19 - 1830 58.3 38.2 47 3.4 WSW | 254 5.0 WSW | 249 69.9 55.9
10/13/19 - 1820 58.8 39.0 48 4.5 WSW | 243 5.9 W | 272 69.9 55.9
10/13/19 - 1810 59.7 38.5 45 5.8 SW | 234 7.9 SW | 222 69.9 55.9
10/13/19 - 1800 61.1 34.6 37 6.9 SW | 228 10.7 SW | 230 69.9 55.9
10/13/19 - 1750 62.0 36.1 38 8.2 SW | 219 13.8 SW | 228 69.9 55.9
10/13/19 - 1740 62.7 35.9 37 7.9 SW | 219 13.2 SW | 217 69.9 55.9
10/13/19 - 1730 63.9 21.3 20 7.4 SSW | 207 13.2 SSW | 213 69.9 55.9
10/13/19 - 1720 64.5 17.8 16 8.9 SSW | 209 14.5 SSW | 212 69.9 55.9
10/13/19 - 1710 65.1 17.6 16 6.7 SSW | 202 11.0 SSW | 196 69.9 55.9
10/13/19 - 1700 66.1 17.5 15 7.2 SSW | 193 14.0 SSW | 192 69.9 55.9
10/13/19 - 1650 66.3 17.7 15 5.2 S | 187 11.4 SSW | 200 69.9 55.9
10/13/19 - 1640 66.8 17.8 15 5.9 S | 180 12.5 S | 188 69.9 55.9
10/13/19 - 1630 66.6 17.6 15 7.0 S | 182 12.9 S | 169 69.9 55.9
10/13/19 - 1620 67.2 17.8 15 7.4 S | 191 14.7 SSW | 197 69.9 55.9
10/13/19 - 1610 67.3 17.6 15 8.6 SSW | 200 17.1 SW | 229 69.9 55.9
10/13/19 - 1600 67.3 18.0 15 8.6 SW | 220 14.9 SSW | 212 69.9 55.9
10/13/19 - 1550 67.4 18.2 15 9.0 SSW | 213 16.2 SSW | 209 69.9 55.9
10/13/19 - 1540 67.7 16.8 14 8.2 SSW | 202 15.8 SSW | 206 69.9 55.9
10/13/19 - 1530 67.5 16.5 14 8.4 SSW | 200 16.9 SSW | 209 69.9 55.9
10/13/19 - 1520 67.8 16.1 13 8.0 SSW | 194 17.8 S | 190 69.9 55.9
10/13/19 - 1510 68.3 15.6 13 10.2 SSW | 192 15.6 SSW | 204 69.9 55.9
10/13/19 - 1500 67.5 15.8 14 7.8 SSW | 211 16.7 SSW | 210 69.9 55.9
10/13/19 - 1450 68.3 15.2 13 8.9 SSW | 197 15.3 SW | 219 69.9 55.9
10/13/19 - 1440 67.7 15.0 13 8.2 SSE | 168 18.0 S | 185 69.9 55.9
10/13/19 - 1430 67.6 14.0 12 9.6 SW | 222 18.4 SSW | 209 69.9 55.9
10/13/19 - 1420 68.8 14.8 12 9.5 SSW | 200 18.4 S | 191 69.9 55.9
10/13/19 - 1410 67.8 15.2 13 10.0 S | 182 19.5 S | 190 69.0 55.9
10/13/19 - 1400 68.3 15.5 13 7.8 S | 174 18.0 S | 191 69.0 55.9
10/13/19 - 1350 67.3 14.7 13 8.7 S | 186 21.3 S | 169 68.8 55.9
10/13/19 - 1340 67.6 14.6 13 8.0 S | 189 18.2 SSW | 196 68.7 55.9
10/13/19 - 1330 67.6 14.7 13 9.5 S | 191 18.8 SSW | 213 68.6 55.9
10/13/19 - 1320 67.3 14.6 13 9.2 S | 185 19.3 SSW | 193 68.2 55.9
10/13/19 - 1310 67.1 14.9 13 8.8 S | 182 15.3 S | 176 68.0 55.9
10/13/19 - 1300 66.2 14.7 13 9.6 S | 176 16.7 S | 177 67.7 55.9
10/13/19 - 1250 66.3 14.7 13 9.7 S | 174 19.1 S | 185 67.7 55.9
10/13/19 - 1240 65.8 14.3 13 10.0 S | 169 17.1 SSE | 166 67.7 55.9
10/13/19 - 1230 66.4 14.4 13 8.3 SSE | 164 22.6 S | 169 67.7 55.9
10/13/19 - 1220 66.1 14.3 13 7.9 S | 172 17.5 S | 172 67.2 55.9
10/13/19 - 1210 65.5 14.0 13 8.9 SSE | 166 16.4 S | 172 66.7 55.9
10/13/19 - 1200 65.7 14.0 13 8.2 SSE | 168 17.1 S | 184 66.7 55.9
Max 68.8 41.0 61 10.2 - 22.6 - 69.9 55.9
Avg 58.0 16.6 23 5.0 - 8.4 - - -
Min 49.5 -7.6 7 0.4 - 1.3 - 53.3 48.9